Meteo Giornale » Osservazioni meteo Colombia » Puerto Asis
ore: 04:00 - Osservazioni Meteo Puerto Asis
Lat. 0° 30' N Lon. 76° 30' W Alt. 254 metri s.l.m.
23 °C
Sereno
Temp. 24 Ore
23 °C
35 °C
Nord
1.8 Km/h
Dew point 22 °C
Umidità 94 %
Visibilità 11 Km
Il sole sorge alle ore 06:02
Il sole tramonta alle ore 18:09
| Data e Ora | Cielo e Fenomeni | T °C | DP °C | Um. % | Pres. hPa | Vis. km | Vento km/h | |
|---|---|---|---|---|---|---|---|---|
| Oggi h: 04:00 | Sereno | 23 | 22 | 94 | 1010 | 11 | N 1.8 | |
| Oggi h: 03:00 | Sereno | 23 | 22 | 94 | 1010 | 11 | N 1.8 | |
| Oggi h: 02:00 | Sereno | 24 | 22 | 88 | 1011 | 11 | N 1.8 | |
| Oggi h: 01:00 | Sereno | 24 | 22 | 88 | 1011 | 11 | N 1.8 | |
| Oggi h: 00:00 | Sereno | 25 | 22 | 83 | 1012 | 11 | N 3.7 | |
| Ieri h: 23:00 | Sereno | 26 | 24 | 88 | 1013 | 10 | N 3.7 | |
| Ieri h: 22:00 | Sereno | 26 | 24 | 88 | 1012 | 10 | N 5.5 | |
| Ieri h: 21:00 | Sereno | 27 | 24 | 83 | 1011 | 10 | N 1.8 | |
| Ieri h: 20:00 | Sereno | 29 | 24 | 74 | 1010 | 10 | N 1.8 | |
| Ieri h: 19:00 | Sereno | 30 | 24 | 70 | 1010 | 10 | N 0 | |
| Ieri h: 17:00 | Poco Nuvoloso | 34 | 22 | 49 | 1008 | 10 | N 5.5 | |
| Ieri h: 15:00 | Sereno | 35 | 23 | 49 | 1010 | 10 | N 3.7 | |
| Ieri h: 14:00 | Sereno | 34 | 23 | 52 | 1011 | 10 | N 5.5 | |
| Ieri h: 13:00 | Sereno | 34 | 23 | 52 | 1012 | 10 | N 5.5 | |
| Ieri h: 12:00 | Sereno | 33 | 23 | 55 | 1013 | 10 | N 5.5 | |
| Ieri h: 11:00 | Sereno | 31 | 24 | 66 | 1014 | 10 | N 7.4 | |
| Ieri h: 10:00 | Sereno | 30 | 24 | 70 | 1014 | 10 | N 3.7 | |
| Ieri h: 09:00 | Sereno | 28 | 23 | 74 | 1013 | 10 | N 5.5 | |
| Ieri h: 08:25 | Sereno | 27 | 23 | 78 | 1013 | 10 | N 5.5 | |
| Ieri h: 08:00 | Sereno | 26 | 23 | 83 | 1013 | 0 | N 7.4 | |
| Ieri h: 07:00 | Sereno | 24 | 24 | 100 | 1012 | 0 | N 1.8 | |
| Ieri h: 06:00 | Sereno | 23 | 23 | 100 | 1012 | 0 | N 1.8 | |
| Ieri h: 05:00 | Sereno | 23 | 23 | 100 | 1011 | 0 | N 1.8 | |



